Main page
METAR-TAF:

METAR-TAF

Airports :

London City Airport

London, England

latitude: 51-30N, longitude: 000-03E, elevation: 5 m

Current weather observation

The report was made 32 minutes ago, at 20:50 UTC
Wind 17 kt from the South/Southwest with gusts up to 28 kt
Temperature 21°C
Humidity 64%
Pressure 1003 hPa
Visibility 10 km or more
Broken clouds at a height of 3100 ft
Broken clouds at a height of 3900 ft

METAR: EGLC 202050Z AUTO 21017G28KT 9999 BKN031 BKN039 21/14 Q1003

Time: 22:22 (21:22 UTC)

Forecast

The report was made 4 hours and 15 minutes ago, at 17:07 UTC
Forecast valid from 20 at 18 UTC to 20 at 21 UTC
Wind 18 kt from the South/Southwest with gusts up to 30 kt
Visibility 10 km or more
Scattered clouds at a height of 2000 ft
Probability 30% :
Temporary
from 20 at 18 UTC to 20 at 21 UTC
Wind 25 kt from the South/Southwest with gusts up to 40 kt

TAF: EGLC 201707Z 2018/2021 21018G30KT 9999 SCT020 PROB30 TEMPO 2018/2021 21025G40KT

Weather observations and forecasts of more than 4000 airports (METAR and TAF reports).

The available stations are represented by yellow and red dots on the map.

Hover mouse over dot to see the name of the station.

Then click to see weather observations and forecasts.

To change the map : click on the green buttons with a black cross to zoom in, on the green button with a dash to zoom out, or on the green arrows for adjacent maps.


METAR-TAF: